Norfolk, Virginia
Traffic Map
Current Weather Conditions
Norfolk, Virginia
Few Clouds
Few Clouds
23°
Feels Like: 23°
Wind Chill: 23° Ceiling: Unl
Heat Index: 23° Visibility: 10mi
Dew Point: 19° Wind: 0mph
Humidity: 76% Direction: ° ()
Pressure: 30.15in Gusts: 0mph
Raw Report DataKORF 011051Z AUTO 00000KT 10SM FEW110 23/19 A3015 RMK AO2 SLP208 T02330189 TSNO
Traffic Incident Summary
Active as of:
Severity:
Category:
InformationThere was an issue retrieving the traffic information for this location. Please try a different location or try again shortly.
Advertisements
Track Severe Weather on mobile